sensor_id;sensor_type;location;lat;lon;timestamp;P1;durP1;ratioP1;P2;durP2;ratioP2
16705;SDS011;8469;60.136;15.180;2023-07-13T00:00:49;0.40;;;0.40;;
16705;SDS011;8469;60.136;15.180;2023-07-13T00:03:16;0.50;;;0.50;;
16705;SDS011;8469;60.136;15.180;2023-07-13T00:05:43;0.78;;;0.60;;
16705;SDS011;8469;60.136;15.180;2023-07-13T00:08:11;0.67;;;0.40;;
16705;SDS011;8469;60.136;15.180;2023-07-13T00:10:40;2.30;;;1.20;;
16705;SDS011;8469;60.136;15.180;2023-07-13T00:13:07;1.07;;;1.07;;
16705;SDS011;8469;60.136;15.180;2023-07-13T00:15:36;0.60;;;0.60;;
16705;SDS011;8469;60.136;15.180;2023-07-13T00:18:03;0.40;;;0.40;;
16705;SDS011;8469;60.136;15.180;2023-07-13T00:20:30;0.35;;;0.35;;
16705;SDS011;8469;60.136;15.180;2023-07-13T00:22:59;0.40;;;0.40;;
16705;SDS011;8469;60.136;15.180;2023-07-13T00:25:26;0.40;;;0.37;;
16705;SDS011;8469;60.136;15.180;2023-07-13T00:27:57;0.20;;;0.20;;
16705;SDS011;8469;60.136;15.180;2023-07-13T00:30:24;2.20;;;0.50;;
16705;SDS011;8469;60.136;15.180;2023-07-13T00:32:51;0.50;;;0.50;;
16705;SDS011;8469;60.136;15.180;2023-07-13T00:35:19;1.03;;;0.97;;
16705;SDS011;8469;60.136;15.180;2023-07-13T00:37:46;0.62;;;0.50;;
16705;SDS011;8469;60.136;15.180;2023-07-13T00:40:15;0.37;;;0.37;;
16705;SDS011;8469;60.136;15.180;2023-07-13T00:42:43;0.30;;;0.30;;
16705;SDS011;8469;60.136;15.180;2023-07-13T00:47:42;1.30;;;0.50;;
16705;SDS011;8469;60.136;15.180;2023-07-13T00:50:12;0.20;;;0.20;;
16705;SDS011;8469;60.136;15.180;2023-07-13T00:52:40;1.73;;;0.30;;
16705;SDS011;8469;60.136;15.180;2023-07-13T00:55:09;0.20;;;0.20;;
16705;SDS011;8469;60.136;15.180;2023-07-13T00:57:38;0.20;;;0.20;;
16705;SDS011;8469;60.136;15.180;2023-07-13T01:00:06;0.60;;;0.60;;
16705;SDS011;8469;60.136;15.180;2023-07-13T01:02:39;4.00;;;1.90;;
16705;SDS011;8469;60.136;15.180;2023-07-13T01:05:10;1.00;;;1.00;;
16705;SDS011;8469;60.136;15.180;2023-07-13T01:07:38;1.10;;;0.80;;
16705;SDS011;8469;60.136;15.180;2023-07-13T01:10:06;0.90;;;0.50;;
16705;SDS011;8469;60.136;15.180;2023-07-13T01:12:33;0.62;;;0.62;;
16705;SDS011;8469;60.136;15.180;2023-07-13T01:15:01;0.30;;;0.30;;
16705;SDS011;8469;60.136;15.180;2023-07-13T01:17:29;0.90;;;0.43;;
16705;SDS011;8469;60.136;15.180;2023-07-13T01:19:56;0.50;;;0.50;;
16705;SDS011;8469;60.136;15.180;2023-07-13T01:22:24;1.00;;;0.60;;
16705;SDS011;8469;60.136;15.180;2023-07-13T01:24:53;0.60;;;0.47;;
16705;SDS011;8469;60.136;15.180;2023-07-13T01:27:22;0.60;;;0.60;;
16705;SDS011;8469;60.136;15.180;2023-07-13T01:29:51;0.40;;;0.40;;
16705;SDS011;8469;60.136;15.180;2023-07-13T01:32:20;0.50;;;0.50;;
16705;SDS011;8469;60.136;15.180;2023-07-13T01:34:50;0.90;;;0.50;;
16705;SDS011;8469;60.136;15.180;2023-07-13T01:37:19;3.40;;;0.50;;
16705;SDS011;8469;60.136;15.180;2023-07-13T01:39:47;0.45;;;0.45;;
16705;SDS011;8469;60.136;15.180;2023-07-13T01:42:15;0.80;;;0.50;;
16705;SDS011;8469;60.136;15.180;2023-07-13T01:44:42;2.20;;;0.70;;
16705;SDS011;8469;60.136;15.180;2023-07-13T01:47:10;1.37;;;0.80;;
16705;SDS011;8469;60.136;15.180;2023-07-13T01:49:37;1.05;;;0.98;;
16705;SDS011;8469;60.136;15.180;2023-07-13T01:52:05;1.80;;;0.93;;
16705;SDS011;8469;60.136;15.180;2023-07-13T01:54:32;1.20;;;1.00;;
16705;SDS011;8469;60.136;15.180;2023-07-13T01:57:01;1.50;;;1.37;;
16705;SDS011;8469;60.136;15.180;2023-07-13T01:59:29;1.80;;;1.70;;
16705;SDS011;8469;60.136;15.180;2023-07-13T02:01:56;1.92;;;1.57;;
16705;SDS011;8469;60.136;15.180;2023-07-13T02:04:23;2.45;;;1.40;;
16705;SDS011;8469;60.136;15.180;2023-07-13T02:06:52;3.10;;;1.47;;
16705;SDS011;8469;60.136;15.180;2023-07-13T02:09:19;2.53;;;1.50;;
16705;SDS011;8469;60.136;15.180;2023-07-13T02:11:46;5.08;;;1.80;;
16705;SDS011;8469;60.136;15.180;2023-07-13T02:14:14;3.45;;;1.82;;
16705;SDS011;8469;60.136;15.180;2023-07-13T02:16:42;3.30;;;1.70;;
16705;SDS011;8469;60.136;15.180;2023-07-13T02:19:09;2.45;;;1.67;;
16705;SDS011;8469;60.136;15.180;2023-07-13T02:21:37;5.53;;;2.17;;
16705;SDS011;8469;60.136;15.180;2023-07-13T02:24:04;5.33;;;1.90;;
16705;SDS011;8469;60.136;15.180;2023-07-13T02:26:32;3.20;;;1.90;;
16705;SDS011;8469;60.136;15.180;2023-07-13T02:29:00;3.02;;;1.90;;
16705;SDS011;8469;60.136;15.180;2023-07-13T02:31:27;4.00;;;1.90;;
16705;SDS011;8469;60.136;15.180;2023-07-13T02:33:54;4.62;;;2.08;;
16705;SDS011;8469;60.136;15.180;2023-07-13T02:36:22;2.23;;;2.00;;
16705;SDS011;8469;60.136;15.180;2023-07-13T02:38:50;6.75;;;2.20;;
16705;SDS011;8469;60.136;15.180;2023-07-13T02:41:17;5.60;;;2.40;;
16705;SDS011;8469;60.136;15.180;2023-07-13T02:43:45;8.40;;;2.70;;
16705;SDS011;8469;60.136;15.180;2023-07-13T02:46:12;4.78;;;2.50;;
16705;SDS011;8469;60.136;15.180;2023-07-13T02:48:40;5.05;;;2.50;;
16705;SDS011;8469;60.136;15.180;2023-07-13T02:51:07;3.40;;;2.17;;
16705;SDS011;8469;60.136;15.180;2023-07-13T02:53:35;8.20;;;2.33;;
16705;SDS011;8469;60.136;15.180;2023-07-13T02:56:03;4.63;;;2.10;;
16705;SDS011;8469;60.136;15.180;2023-07-13T02:58:31;4.12;;;2.20;;
16705;SDS011;8469;60.136;15.180;2023-07-13T03:00:58;3.52;;;2.12;;
16705;SDS011;8469;60.136;15.180;2023-07-13T03:03:26;4.78;;;1.90;;
16705;SDS011;8469;60.136;15.180;2023-07-13T03:05:57;2.62;;;1.80;;
16705;SDS011;8469;60.136;15.180;2023-07-13T03:08:26;2.60;;;2.02;;
16705;SDS011;8469;60.136;15.180;2023-07-13T03:11:00;2.83;;;1.70;;
16705;SDS011;8469;60.136;15.180;2023-07-13T03:13:27;3.47;;;1.90;;
16705;SDS011;8469;60.136;15.180;2023-07-13T03:15:55;5.30;;;2.00;;
16705;SDS011;8469;60.136;15.180;2023-07-13T03:18:22;5.95;;;1.90;;
16705;SDS011;8469;60.136;15.180;2023-07-13T03:20:50;3.95;;;2.02;;
16705;SDS011;8469;60.136;15.180;2023-07-13T03:23:18;4.28;;;1.90;;
16705;SDS011;8469;60.136;15.180;2023-07-13T03:25:47;3.08;;;2.10;;
16705;SDS011;8469;60.136;15.180;2023-07-13T03:28:15;3.05;;;2.00;;
16705;SDS011;8469;60.136;15.180;2023-07-13T03:30:42;5.97;;;2.10;;
16705;SDS011;8469;60.136;15.180;2023-07-13T03:33:10;4.65;;;2.00;;
16705;SDS011;8469;60.136;15.180;2023-07-13T03:35:40;3.02;;;1.95;;
16705;SDS011;8469;60.136;15.180;2023-07-13T03:38:07;5.60;;;2.00;;
16705;SDS011;8469;60.136;15.180;2023-07-13T03:40:34;4.45;;;1.90;;
16705;SDS011;8469;60.136;15.180;2023-07-13T03:43:01;3.90;;;1.90;;
16705;SDS011;8469;60.136;15.180;2023-07-13T03:45:29;4.85;;;2.22;;
16705;SDS011;8469;60.136;15.180;2023-07-13T03:47:56;4.85;;;2.10;;
16705;SDS011;8469;60.136;15.180;2023-07-13T03:50:25;6.50;;;2.02;;
16705;SDS011;8469;60.136;15.180;2023-07-13T03:52:51;4.47;;;2.13;;
16705;SDS011;8469;60.136;15.180;2023-07-13T03:55:19;8.20;;;2.90;;
16705;SDS011;8469;60.136;15.180;2023-07-13T03:57:47;7.17;;;2.47;;
16705;SDS011;8469;60.136;15.180;2023-07-13T04:00:15;3.95;;;2.33;;
16705;SDS011;8469;60.136;15.180;2023-07-13T04:02:42;4.60;;;2.20;;
16705;SDS011;8469;60.136;15.180;2023-07-13T04:05:09;7.25;;;2.30;;
16705;SDS011;8469;60.136;15.180;2023-07-13T04:07:37;5.53;;;2.30;;
16705;SDS011;8469;60.136;15.180;2023-07-13T04:10:05;4.63;;;2.40;;
16705;SDS011;8469;60.136;15.180;2023-07-13T04:12:33;7.47;;;2.45;;
16705;SDS011;8469;60.136;15.180;2023-07-13T04:15:01;4.17;;;2.10;;
16705;SDS011;8469;60.136;15.180;2023-07-13T04:17:28;6.37;;;2.40;;
16705;SDS011;8469;60.136;15.180;2023-07-13T04:19:55;5.58;;;2.15;;
16705;SDS011;8469;60.136;15.180;2023-07-13T04:22:23;7.12;;;2.58;;
16705;SDS011;8469;60.136;15.180;2023-07-13T04:24:50;3.52;;;2.00;;
16705;SDS011;8469;60.136;15.180;2023-07-13T04:27:17;9.43;;;2.42;;
16705;SDS011;8469;60.136;15.180;2023-07-13T04:29:44;8.45;;;2.33;;
16705;SDS011;8469;60.136;15.180;2023-07-13T04:32:12;6.10;;;2.22;;
16705;SDS011;8469;60.136;15.180;2023-07-13T04:34:40;8.35;;;2.50;;
16705;SDS011;8469;60.136;15.180;2023-07-13T04:37:07;9.73;;;2.85;;
16705;SDS011;8469;60.136;15.180;2023-07-13T04:39:34;8.73;;;2.30;;
16705;SDS011;8469;60.136;15.180;2023-07-13T04:42:03;10.72;;;2.42;;
16705;SDS011;8469;60.136;15.180;2023-07-13T04:44:30;9.27;;;2.77;;
16705;SDS011;8469;60.136;15.180;2023-07-13T04:46:58;8.78;;;2.40;;
16705;SDS011;8469;60.136;15.180;2023-07-13T04:49:25;5.93;;;2.40;;
16705;SDS011;8469;60.136;15.180;2023-07-13T04:51:53;7.08;;;2.30;;
16705;SDS011;8469;60.136;15.180;2023-07-13T04:54:21;7.12;;;2.00;;
16705;SDS011;8469;60.136;15.180;2023-07-13T04:56:48;7.33;;;1.90;;
16705;SDS011;8469;60.136;15.180;2023-07-13T04:59:16;7.58;;;2.08;;
16705;SDS011;8469;60.136;15.180;2023-07-13T05:01:43;4.83;;;1.80;;
16705;SDS011;8469;60.136;15.180;2023-07-13T05:04:12;8.30;;;2.25;;
16705;SDS011;8469;60.136;15.180;2023-07-13T05:06:39;8.50;;;2.00;;
16705;SDS011;8469;60.136;15.180;2023-07-13T05:09:06;7.08;;;2.00;;
16705;SDS011;8469;60.136;15.180;2023-07-13T05:11:34;8.33;;;2.20;;
16705;SDS011;8469;60.136;15.180;2023-07-13T05:14:01;6.17;;;2.05;;
16705;SDS011;8469;60.136;15.180;2023-07-13T05:16:28;5.47;;;1.72;;
16705;SDS011;8469;60.136;15.180;2023-07-13T05:18:56;9.63;;;1.90;;
16705;SDS011;8469;60.136;15.180;2023-07-13T05:21:23;12.05;;;2.10;;
16705;SDS011;8469;60.136;15.180;2023-07-13T05:23:50;9.28;;;2.10;;
16705;SDS011;8469;60.136;15.180;2023-07-13T05:26:18;4.73;;;1.90;;
16705;SDS011;8469;60.136;15.180;2023-07-13T05:28:46;7.90;;;1.82;;
16705;SDS011;8469;60.136;15.180;2023-07-13T05:31:14;7.37;;;1.70;;
16705;SDS011;8469;60.136;15.180;2023-07-13T05:33:41;5.45;;;2.12;;
16705;SDS011;8469;60.136;15.180;2023-07-13T05:36:09;5.33;;;1.60;;
16705;SDS011;8469;60.136;15.180;2023-07-13T05:38:36;6.67;;;1.80;;
16705;SDS011;8469;60.136;15.180;2023-07-13T05:41:03;7.08;;;1.98;;
16705;SDS011;8469;60.136;15.180;2023-07-13T05:43:31;4.55;;;1.50;;
16705;SDS011;8469;60.136;15.180;2023-07-13T05:45:59;7.95;;;1.72;;
16705;SDS011;8469;60.136;15.180;2023-07-13T05:48:26;8.00;;;1.85;;
16705;SDS011;8469;60.136;15.180;2023-07-13T05:50:53;5.75;;;1.92;;
16705;SDS011;8469;60.136;15.180;2023-07-13T05:53:21;7.62;;;1.60;;
16705;SDS011;8469;60.136;15.180;2023-07-13T05:55:48;8.93;;;1.90;;
16705;SDS011;8469;60.136;15.180;2023-07-13T05:58:19;5.50;;;1.62;;
16705;SDS011;8469;60.136;15.180;2023-07-13T06:00:47;5.78;;;1.65;;
16705;SDS011;8469;60.136;15.180;2023-07-13T06:03:15;7.35;;;1.50;;
16705;SDS011;8469;60.136;15.180;2023-07-13T06:05:42;8.38;;;1.87;;
16705;SDS011;8469;60.136;15.180;2023-07-13T06:08:09;4.77;;;1.90;;
16705;SDS011;8469;60.136;15.180;2023-07-13T06:10:37;7.60;;;2.25;;
16705;SDS011;8469;60.136;15.180;2023-07-13T06:13:04;4.47;;;1.77;;
16705;SDS011;8469;60.136;15.180;2023-07-13T06:15:32;4.65;;;1.65;;
16705;SDS011;8469;60.136;15.180;2023-07-13T06:18:00;4.42;;;1.60;;
16705;SDS011;8469;60.136;15.180;2023-07-13T06:20:27;8.78;;;2.00;;
16705;SDS011;8469;60.136;15.180;2023-07-13T06:22:55;3.90;;;1.37;;
16705;SDS011;8469;60.136;15.180;2023-07-13T06:25:22;8.18;;;1.60;;
16705;SDS011;8469;60.136;15.180;2023-07-13T06:27:50;4.30;;;2.00;;
16705;SDS011;8469;60.136;15.180;2023-07-13T06:30:17;9.60;;;1.70;;
16705;SDS011;8469;60.136;15.180;2023-07-13T06:32:44;4.78;;;1.65;;
16705;SDS011;8469;60.136;15.180;2023-07-13T06:35:12;5.80;;;1.40;;
16705;SDS011;8469;60.136;15.180;2023-07-13T06:37:39;5.08;;;1.70;;
16705;SDS011;8469;60.136;15.180;2023-07-13T06:40:07;6.60;;;1.60;;
16705;SDS011;8469;60.136;15.180;2023-07-13T06:42:34;7.67;;;1.53;;
16705;SDS011;8469;60.136;15.180;2023-07-13T06:45:04;5.00;;;1.80;;
16705;SDS011;8469;60.136;15.180;2023-07-13T06:47:33;7.17;;;1.95;;
16705;SDS011;8469;60.136;15.180;2023-07-13T06:50:00;3.87;;;1.40;;
16705;SDS011;8469;60.136;15.180;2023-07-13T06:52:28;5.85;;;1.65;;
16705;SDS011;8469;60.136;15.180;2023-07-13T06:54:55;9.25;;;1.70;;
16705;SDS011;8469;60.136;15.180;2023-07-13T06:57:22;8.68;;;1.47;;
16705;SDS011;8469;60.136;15.180;2023-07-13T06:59:50;6.50;;;1.55;;
16705;SDS011;8469;60.136;15.180;2023-07-13T07:02:17;4.62;;;1.42;;
16705;SDS011;8469;60.136;15.180;2023-07-13T07:04:44;9.23;;;1.52;;
16705;SDS011;8469;60.136;15.180;2023-07-13T07:07:12;3.90;;;1.40;;
16705;SDS011;8469;60.136;15.180;2023-07-13T07:09:40;6.40;;;1.55;;
16705;SDS011;8469;60.136;15.180;2023-07-13T07:12:07;3.80;;;1.40;;
16705;SDS011;8469;60.136;15.180;2023-07-13T07:14:34;5.10;;;1.72;;
16705;SDS011;8469;60.136;15.180;2023-07-13T07:17:01;7.85;;;1.55;;
16705;SDS011;8469;60.136;15.180;2023-07-13T07:19:30;7.15;;;1.40;;
16705;SDS011;8469;60.136;15.180;2023-07-13T07:21:57;5.35;;;1.30;;
16705;SDS011;8469;60.136;15.180;2023-07-13T07:24:25;5.42;;;1.30;;
16705;SDS011;8469;60.136;15.180;2023-07-13T07:26:52;8.25;;;1.62;;
16705;SDS011;8469;60.136;15.180;2023-07-13T07:29:20;6.97;;;1.20;;
16705;SDS011;8469;60.136;15.180;2023-07-13T07:31:48;5.72;;;1.30;;
16705;SDS011;8469;60.136;15.180;2023-07-13T07:34:16;8.40;;;1.63;;
16705;SDS011;8469;60.136;15.180;2023-07-13T07:36:43;5.30;;;1.20;;
16705;SDS011;8469;60.136;15.180;2023-07-13T07:39:11;6.25;;;1.45;;
16705;SDS011;8469;60.136;15.180;2023-07-13T07:41:38;5.07;;;1.40;;
16705;SDS011;8469;60.136;15.180;2023-07-13T07:44:06;4.45;;;1.20;;
16705;SDS011;8469;60.136;15.180;2023-07-13T07:46:35;6.33;;;1.30;;
16705;SDS011;8469;60.136;15.180;2023-07-13T07:49:02;4.78;;;1.12;;
16705;SDS011;8469;60.136;15.180;2023-07-13T07:51:30;5.77;;;1.20;;
16705;SDS011;8469;60.136;15.180;2023-07-13T07:53:57;5.78;;;1.30;;
16705;SDS011;8469;60.136;15.180;2023-07-13T07:56:25;5.15;;;1.30;;
16705;SDS011;8469;60.136;15.180;2023-07-13T07:58:52;4.75;;;1.20;;
16705;SDS011;8469;60.136;15.180;2023-07-13T08:01:19;4.97;;;1.10;;
16705;SDS011;8469;60.136;15.180;2023-07-13T08:03:47;5.05;;;1.30;;
16705;SDS011;8469;60.136;15.180;2023-07-13T08:06:14;5.20;;;1.40;;
16705;SDS011;8469;60.136;15.180;2023-07-13T08:08:41;6.55;;;1.40;;
16705;SDS011;8469;60.136;15.180;2023-07-13T08:11:08;4.42;;;1.10;;
16705;SDS011;8469;60.136;15.180;2023-07-13T08:13:37;5.25;;;1.37;;
16705;SDS011;8469;60.136;15.180;2023-07-13T08:16:05;3.72;;;1.20;;
16705;SDS011;8469;60.136;15.180;2023-07-13T08:18:33;3.08;;;1.20;;
16705;SDS011;8469;60.136;15.180;2023-07-13T08:21:03;5.40;;;1.05;;
16705;SDS011;8469;60.136;15.180;2023-07-13T08:23:33;3.10;;;1.20;;
16705;SDS011;8469;60.136;15.180;2023-07-13T08:26:01;3.23;;;1.20;;
16705;SDS011;8469;60.136;15.180;2023-07-13T08:28:29;4.80;;;1.45;;
16705;SDS011;8469;60.136;15.180;2023-07-13T08:31:03;1.50;;;1.00;;
16705;SDS011;8469;60.136;15.180;2023-07-13T08:33:31;6.08;;;1.42;;
16705;SDS011;8469;60.136;15.180;2023-07-13T08:35:58;5.17;;;1.30;;
16705;SDS011;8469;60.136;15.180;2023-07-13T08:38:25;5.95;;;1.40;;
16705;SDS011;8469;60.136;15.180;2023-07-13T08:40:53;3.67;;;1.30;;
16705;SDS011;8469;60.136;15.180;2023-07-13T08:43:25;1.40;;;1.00;;
16705;SDS011;8469;60.136;15.180;2023-07-13T08:46:02;3.22;;;1.10;;
16705;SDS011;8469;60.136;15.180;2023-07-13T08:48:27;6.90;;;1.30;;
16705;SDS011;8469;60.136;15.180;2023-07-13T08:50:59;4.13;;;1.27;;
16705;SDS011;8469;60.136;15.180;2023-07-13T08:53:29;3.52;;;1.50;;
16705;SDS011;8469;60.136;15.180;2023-07-13T08:55:57;5.63;;;1.57;;
16705;SDS011;8469;60.136;15.180;2023-07-13T08:58:25;7.15;;;1.45;;
16705;SDS011;8469;60.136;15.180;2023-07-13T09:01:03;3.15;;;1.50;;
16705;SDS011;8469;60.136;15.180;2023-07-13T09:03:46;3.25;;;1.15;;
16705;SDS011;8469;60.136;15.180;2023-07-13T09:06:15;3.80;;;1.40;;
16705;SDS011;8469;60.136;15.180;2023-07-13T09:08:52;3.22;;;1.10;;
16705;SDS011;8469;60.136;15.180;2023-07-13T09:11:17;7.10;;;1.40;;
16705;SDS011;8469;60.136;15.180;2023-07-13T09:14:45;4.95;;;1.30;;
16705;SDS011;8469;60.136;15.180;2023-07-13T09:16:28;4.05;;;1.27;;
16705;SDS011;8469;60.136;15.180;2023-07-13T09:18:56;2.23;;;0.97;;
16705;SDS011;8469;60.136;15.180;2023-07-13T09:21:32;2.58;;;1.12;;
16705;SDS011;8469;60.136;15.180;2023-07-13T09:24:06;5.33;;;1.30;;
16705;SDS011;8469;60.136;15.180;2023-07-13T09:26:31;5.17;;;1.70;;
16705;SDS011;8469;60.136;15.180;2023-07-13T09:29:03;3.92;;;1.60;;
16705;SDS011;8469;60.136;15.180;2023-07-13T09:31:39;4.97;;;1.40;;
16705;SDS011;8469;60.136;15.180;2023-07-13T09:34:09;2.70;;;1.30;;
16705;SDS011;8469;60.136;15.180;2023-07-13T09:36:37;4.37;;;1.20;;
16705;SDS011;8469;60.136;15.180;2023-07-13T09:39:10;4.00;;;1.40;;
16705;SDS011;8469;60.136;15.180;2023-07-13T09:42:34;10.20;;;1.10;;
16705;SDS011;8469;60.136;15.180;2023-07-13T09:46:57;2.15;;;1.07;;
16705;SDS011;8469;60.136;15.180;2023-07-13T09:49:44;2.20;;;1.03;;
16705;SDS011;8469;60.136;15.180;2023-07-13T09:52:03;2.50;;;1.10;;
16705;SDS011;8469;60.136;15.180;2023-07-13T09:54:26;2.90;;;0.90;;
16705;SDS011;8469;60.136;15.180;2023-07-13T09:56:57;2.62;;;0.90;;
16705;SDS011;8469;60.136;15.180;2023-07-13T09:59:32;2.75;;;0.90;;
16705;SDS011;8469;60.136;15.180;2023-07-13T10:02:01;7.87;;;1.10;;
16705;SDS011;8469;60.136;15.180;2023-07-13T10:04:30;5.28;;;1.20;;
16705;SDS011;8469;60.136;15.180;2023-07-13T10:07:12;3.83;;;0.98;;
16705;SDS011;8469;60.136;15.180;2023-07-13T10:09:35;2.10;;;1.10;;
16705;SDS011;8469;60.136;15.180;2023-07-13T10:12:09;1.33;;;0.97;;
16705;SDS011;8469;60.136;15.180;2023-07-13T10:14:32;2.05;;;0.90;;
16705;SDS011;8469;60.136;15.180;2023-07-13T10:17:03;3.63;;;1.20;;
16705;SDS011;8469;60.136;15.180;2023-07-13T10:19:32;3.37;;;1.10;;
16705;SDS011;8469;60.136;15.180;2023-07-13T10:22:00;1.67;;;1.10;;
16705;SDS011;8469;60.136;15.180;2023-07-13T10:24:33;3.50;;;1.00;;
16705;SDS011;8469;60.136;15.180;2023-07-13T10:29:35;1.40;;;1.00;;
16705;SDS011;8469;60.136;15.180;2023-07-13T10:32:10;4.30;;;1.00;;
16705;SDS011;8469;60.136;15.180;2023-07-13T10:34:38;3.33;;;1.10;;
16705;SDS011;8469;60.136;15.180;2023-07-13T10:37:07;2.50;;;1.20;;
16705;SDS011;8469;60.136;15.180;2023-07-13T10:39:37;2.72;;;0.90;;
16705;SDS011;8469;60.136;15.180;2023-07-13T10:42:05;3.42;;;1.00;;
16705;SDS011;8469;60.136;15.180;2023-07-13T10:44:35;5.13;;;1.30;;
16705;SDS011;8469;60.136;15.180;2023-07-13T10:47:05;3.98;;;0.90;;
16705;SDS011;8469;60.136;15.180;2023-07-13T10:49:33;1.35;;;0.88;;
16705;SDS011;8469;60.136;15.180;2023-07-13T10:52:01;1.42;;;0.85;;
16705;SDS011;8469;60.136;15.180;2023-07-13T10:57:15;4.05;;;1.17;;
16705;SDS011;8469;60.136;15.180;2023-07-13T10:59:43;3.10;;;1.00;;
16705;SDS011;8469;60.136;15.180;2023-07-13T11:02:34;0.93;;;0.80;;
16705;SDS011;8469;60.136;15.180;2023-07-13T11:05:13;3.35;;;1.00;;
16705;SDS011;8469;60.136;15.180;2023-07-13T11:07:30;3.45;;;0.90;;
16705;SDS011;8469;60.136;15.180;2023-07-13T11:10:03;2.10;;;1.20;;
16705;SDS011;8469;60.136;15.180;2023-07-13T11:15:26;4.75;;;1.22;;
16705;SDS011;8469;60.136;15.180;2023-07-13T11:17:53;3.42;;;1.20;;
16705;SDS011;8469;60.136;15.180;2023-07-13T11:20:39;2.80;;;1.25;;
16705;SDS011;8469;60.136;15.180;2023-07-13T11:23:06;3.60;;;1.22;;
16705;SDS011;8469;60.136;15.180;2023-07-13T11:30:48;2.17;;;1.30;;
16705;SDS011;8469;60.136;15.180;2023-07-13T11:33:17;2.72;;;1.20;;
16705;SDS011;8469;60.136;15.180;2023-07-13T11:38:23;3.02;;;1.20;;
16705;SDS011;8469;60.136;15.180;2023-07-13T11:40:51;3.15;;;1.10;;
16705;SDS011;8469;60.136;15.180;2023-07-13T11:43:20;1.82;;;1.10;;
16705;SDS011;8469;60.136;15.180;2023-07-13T11:45:49;2.37;;;1.20;;
16705;SDS011;8469;60.136;15.180;2023-07-13T11:48:35;3.72;;;1.15;;
16705;SDS011;8469;60.136;15.180;2023-07-13T11:50:54;2.67;;;1.10;;
16705;SDS011;8469;60.136;15.180;2023-07-13T11:53:17;2.10;;;0.82;;
16705;SDS011;8469;60.136;15.180;2023-07-13T11:55:45;5.90;;;1.23;;
16705;SDS011;8469;60.136;15.180;2023-07-13T11:58:13;2.77;;;1.10;;
16705;SDS011;8469;60.136;15.180;2023-07-13T12:00:41;2.98;;;1.15;;
16705;SDS011;8469;60.136;15.180;2023-07-13T12:03:10;2.08;;;1.07;;
16705;SDS011;8469;60.136;15.180;2023-07-13T12:05:38;2.70;;;0.85;;
16705;SDS011;8469;60.136;15.180;2023-07-13T12:08:10;1.72;;;1.00;;
16705;SDS011;8469;60.136;15.180;2023-07-13T12:10:37;3.25;;;1.07;;
16705;SDS011;8469;60.136;15.180;2023-07-13T12:13:07;2.80;;;1.30;;
16705;SDS011;8469;60.136;15.180;2023-07-13T12:15:37;1.50;;;1.00;;
16705;SDS011;8469;60.136;15.180;2023-07-13T12:18:09;1.17;;;0.90;;
16705;SDS011;8469;60.136;15.180;2023-07-13T12:20:37;2.17;;;0.93;;
16705;SDS011;8469;60.136;15.180;2023-07-13T12:23:05;1.63;;;0.90;;
16705;SDS011;8469;60.136;15.180;2023-07-13T12:25:32;3.37;;;0.80;;
16705;SDS011;8469;60.136;15.180;2023-07-13T12:28:00;3.10;;;1.00;;
16705;SDS011;8469;60.136;15.180;2023-07-13T12:30:31;1.92;;;1.00;;
16705;SDS011;8469;60.136;15.180;2023-07-13T12:33:01;2.00;;;0.87;;
16705;SDS011;8469;60.136;15.180;2023-07-13T12:35:29;2.02;;;1.10;;
16705;SDS011;8469;60.136;15.180;2023-07-13T12:37:59;2.00;;;0.90;;
16705;SDS011;8469;60.136;15.180;2023-07-13T12:40:30;2.65;;;0.95;;
16705;SDS011;8469;60.136;15.180;2023-07-13T12:42:55;4.27;;;1.40;;
16705;SDS011;8469;60.136;15.180;2023-07-13T12:45:23;1.65;;;1.10;;
16705;SDS011;8469;60.136;15.180;2023-07-13T12:47:54;2.17;;;1.00;;
16705;SDS011;8469;60.136;15.180;2023-07-13T12:51:09;4.00;;;1.15;;
16705;SDS011;8469;60.136;15.180;2023-07-13T12:53:12;2.47;;;1.20;;
16705;SDS011;8469;60.136;15.180;2023-07-13T12:55:51;1.87;;;1.10;;
16705;SDS011;8469;60.136;15.180;2023-07-13T12:58:24;1.67;;;1.05;;
16705;SDS011;8469;60.136;15.180;2023-07-13T13:01:01;3.05;;;1.40;;
16705;SDS011;8469;60.136;15.180;2023-07-13T13:03:33;2.05;;;1.37;;
16705;SDS011;8469;60.136;15.180;2023-07-13T13:06:03;3.58;;;1.30;;
16705;SDS011;8469;60.136;15.180;2023-07-13T13:08:35;2.60;;;1.15;;
16705;SDS011;8469;60.136;15.180;2023-07-13T13:11:05;3.27;;;1.20;;
16705;SDS011;8469;60.136;15.180;2023-07-13T13:13:32;3.40;;;1.00;;
16705;SDS011;8469;60.136;15.180;2023-07-13T13:16:14;1.43;;;1.00;;
16705;SDS011;8469;60.136;15.180;2023-07-13T13:18:37;2.08;;;0.90;;
16705;SDS011;8469;60.136;15.180;2023-07-13T13:21:05;3.83;;;1.20;;
16705;SDS011;8469;60.136;15.180;2023-07-13T13:23:33;8.00;;;1.05;;
16705;SDS011;8469;60.136;15.180;2023-07-13T13:26:00;2.42;;;1.02;;
16705;SDS011;8469;60.136;15.180;2023-07-13T13:28:28;2.52;;;1.00;;
16705;SDS011;8469;60.136;15.180;2023-07-13T13:30:56;2.02;;;1.10;;
16705;SDS011;8469;60.136;15.180;2023-07-13T13:33:23;1.93;;;1.00;;
16705;SDS011;8469;60.136;15.180;2023-07-13T13:35:50;1.72;;;1.10;;
16705;SDS011;8469;60.136;15.180;2023-07-13T13:38:24;2.87;;;1.10;;
16705;SDS011;8469;60.136;15.180;2023-07-13T13:40:50;4.23;;;1.10;;
16705;SDS011;8469;60.136;15.180;2023-07-13T13:43:23;2.77;;;1.00;;
16705;SDS011;8469;60.136;15.180;2023-07-13T13:45:53;1.42;;;1.00;;
16705;SDS011;8469;60.136;15.180;2023-07-13T13:48:26;2.10;;;1.10;;
16705;SDS011;8469;60.136;15.180;2023-07-13T13:50:52;2.62;;;1.00;;
16705;SDS011;8469;60.136;15.180;2023-07-13T13:53:19;5.10;;;1.00;;
16705;SDS011;8469;60.136;15.180;2023-07-13T13:55:47;1.40;;;0.80;;
16705;SDS011;8469;60.136;15.180;2023-07-13T13:58:14;3.20;;;1.02;;
16705;SDS011;8469;60.136;15.180;2023-07-13T14:00:41;1.60;;;0.90;;
16705;SDS011;8469;60.136;15.180;2023-07-13T14:03:15;1.17;;;0.80;;
16705;SDS011;8469;60.136;15.180;2023-07-13T14:05:40;2.15;;;1.00;;
16705;SDS011;8469;60.136;15.180;2023-07-13T14:08:19;1.30;;;1.00;;
16705;SDS011;8469;60.136;15.180;2023-07-13T14:10:49;1.67;;;0.93;;
16705;SDS011;8469;60.136;15.180;2023-07-13T14:13:21;3.30;;;1.00;;
16705;SDS011;8469;60.136;15.180;2023-07-13T14:15:44;3.50;;;1.00;;
16705;SDS011;8469;60.136;15.180;2023-07-13T14:18:12;3.50;;;0.90;;
16705;SDS011;8469;60.136;15.180;2023-07-13T14:20:41;3.70;;;1.00;;
16705;SDS011;8469;60.136;15.180;2023-07-13T14:23:08;4.15;;;1.30;;
16705;SDS011;8469;60.136;15.180;2023-07-13T14:25:36;1.30;;;1.00;;
16705;SDS011;8469;60.136;15.180;2023-07-13T14:28:10;2.58;;;1.10;;
16705;SDS011;8469;60.136;15.180;2023-07-13T14:30:34;2.58;;;1.12;;
16705;SDS011;8469;60.136;15.180;2023-07-13T14:33:01;2.72;;;1.20;;
16705;SDS011;8469;60.136;15.180;2023-07-13T14:35:28;2.60;;;1.23;;
16705;SDS011;8469;60.136;15.180;2023-07-13T14:37:56;4.08;;;1.10;;
16705;SDS011;8469;60.136;15.180;2023-07-13T14:40:25;2.00;;;1.00;;
16705;SDS011;8469;60.136;15.180;2023-07-13T14:42:52;1.57;;;1.15;;
16705;SDS011;8469;60.136;15.180;2023-07-13T14:45:20;3.98;;;1.40;;
16705;SDS011;8469;60.136;15.180;2023-07-13T14:47:48;5.37;;;1.30;;
16705;SDS011;8469;60.136;15.180;2023-07-13T14:50:17;5.83;;;1.55;;
16705;SDS011;8469;60.136;15.180;2023-07-13T14:52:45;4.10;;;1.62;;
16705;SDS011;8469;60.136;15.180;2023-07-13T14:55:14;3.02;;;1.75;;
16705;SDS011;8469;60.136;15.180;2023-07-13T14:57:42;2.22;;;1.42;;
16705;SDS011;8469;60.136;15.180;2023-07-13T15:00:13;2.87;;;1.57;;
16705;SDS011;8469;60.136;15.180;2023-07-13T15:02:42;3.65;;;1.30;;
16705;SDS011;8469;60.136;15.180;2023-07-13T15:05:14;4.30;;;1.20;;
16705;SDS011;8469;60.136;15.180;2023-07-13T15:07:42;2.70;;;1.17;;
16705;SDS011;8469;60.136;15.180;2023-07-13T15:10:22;3.87;;;1.20;;
16705;SDS011;8469;60.136;15.180;2023-07-13T15:12:51;3.33;;;1.33;;
16705;SDS011;8469;60.136;15.180;2023-07-13T15:15:19;3.02;;;0.88;;
16705;SDS011;8469;60.136;15.180;2023-07-13T15:17:47;1.80;;;0.95;;